sensor_id;sensor_type;location;lat;lon;timestamp;temperature;humidity
14182;DHT22;7171;50.936;6.764;2022-08-19T00:00:37;22.30;99.90
14182;DHT22;7171;50.936;6.764;2022-08-19T00:03:05;22.20;99.90
14182;DHT22;7171;50.936;6.764;2022-08-19T00:05:32;22.20;99.90
14182;DHT22;7171;50.936;6.764;2022-08-19T00:07:59;22.00;99.90
14182;DHT22;7171;50.936;6.764;2022-08-19T00:10:27;21.90;99.90
14182;DHT22;7171;50.936;6.764;2022-08-19T00:12:54;21.80;99.90
14182;DHT22;7171;50.936;6.764;2022-08-19T00:15:22;21.70;99.90
14182;DHT22;7171;50.936;6.764;2022-08-19T00:17:48;21.60;99.90
14182;DHT22;7171;50.936;6.764;2022-08-19T00:20:18;21.40;99.90
14182;DHT22;7171;50.936;6.764;2022-08-19T00:22:46;21.40;99.90
14182;DHT22;7171;50.936;6.764;2022-08-19T00:25:14;20.90;99.90
14182;DHT22;7171;50.936;6.764;2022-08-19T00:27:42;21.10;99.90
14182;DHT22;7171;50.936;6.764;2022-08-19T00:32:37;21.00;99.90
14182;DHT22;7171;50.936;6.764;2022-08-19T00:35:05;20.90;99.90
14182;DHT22;7171;50.936;6.764;2022-08-19T00:37:32;20.80;99.90
14182;DHT22;7171;50.936;6.764;2022-08-19T00:40:00;20.80;99.90
14182;DHT22;7171;50.936;6.764;2022-08-19T00:42:28;20.70;99.90
14182;DHT22;7171;50.936;6.764;2022-08-19T00:44:59;20.60;99.90
14182;DHT22;7171;50.936;6.764;2022-08-19T00:47:25;20.60;99.90
14182;DHT22;7171;50.936;6.764;2022-08-19T00:49:55;20.60;99.90
14182;DHT22;7171;50.936;6.764;2022-08-19T00:52:26;20.40;99.90
14182;DHT22;7171;50.936;6.764;2022-08-19T00:54:55;20.50;99.90
14182;DHT22;7171;50.936;6.764;2022-08-19T00:57:27;20.40;99.90
14182;DHT22;7171;50.936;6.764;2022-08-19T00:59:57;20.40;99.90
14182;DHT22;7171;50.936;6.764;2022-08-19T01:02:25;20.40;99.90
14182;DHT22;7171;50.936;6.764;2022-08-19T01:04:53;20.40;99.90
14182;DHT22;7171;50.936;6.764;2022-08-19T01:07:19;20.40;99.90
14182;DHT22;7171;50.936;6.764;2022-08-19T01:09:46;20.40;99.90
14182;DHT22;7171;50.936;6.764;2022-08-19T01:12:14;20.40;99.90
14182;DHT22;7171;50.936;6.764;2022-08-19T01:14:41;20.40;99.90
14182;DHT22;7171;50.936;6.764;2022-08-19T01:17:10;20.40;99.90
14182;DHT22;7171;50.936;6.764;2022-08-19T01:19:40;20.40;99.90
14182;DHT22;7171;50.936;6.764;2022-08-19T01:22:11;20.40;99.90
14182;DHT22;7171;50.936;6.764;2022-08-19T01:24:40;20.40;99.90
14182;DHT22;7171;50.936;6.764;2022-08-19T01:27:07;20.40;99.90
14182;DHT22;7171;50.936;6.764;2022-08-19T01:29:37;20.40;99.90
14182;DHT22;7171;50.936;6.764;2022-08-19T01:32:05;20.40;99.90
14182;DHT22;7171;50.936;6.764;2022-08-19T01:34:32;20.40;99.90
14182;DHT22;7171;50.936;6.764;2022-08-19T01:37:00;20.40;99.90
14182;DHT22;7171;50.936;6.764;2022-08-19T01:39:32;20.40;99.90
14182;DHT22;7171;50.936;6.764;2022-08-19T01:42:00;20.30;99.90
14182;DHT22;7171;50.936;6.764;2022-08-19T01:44:28;20.30;99.90
14182;DHT22;7171;50.936;6.764;2022-08-19T01:46:55;20.30;99.90
14182;DHT22;7171;50.936;6.764;2022-08-19T01:49:23;20.30;99.90
14182;DHT22;7171;50.936;6.764;2022-08-19T01:51:52;20.30;99.90
14182;DHT22;7171;50.936;6.764;2022-08-19T01:54:20;20.30;99.90
14182;DHT22;7171;50.936;6.764;2022-08-19T01:56:47;20.30;99.90
14182;DHT22;7171;50.936;6.764;2022-08-19T01:59:18;20.30;99.90
14182;DHT22;7171;50.936;6.764;2022-08-19T02:01:46;20.30;99.90
14182;DHT22;7171;50.936;6.764;2022-08-19T02:04:12;20.30;99.90
14182;DHT22;7171;50.936;6.764;2022-08-19T02:06:40;20.30;99.90
14182;DHT22;7171;50.936;6.764;2022-08-19T02:09:07;20.20;99.90
14182;DHT22;7171;50.936;6.764;2022-08-19T02:11:35;20.20;99.90
14182;DHT22;7171;50.936;6.764;2022-08-19T02:14:06;20.20;99.90
14182;DHT22;7171;50.936;6.764;2022-08-19T02:16:36;20.20;99.90
14182;DHT22;7171;50.936;6.764;2022-08-19T02:19:04;20.20;99.90
14182;DHT22;7171;50.936;6.764;2022-08-19T02:21:31;20.20;99.90
14182;DHT22;7171;50.936;6.764;2022-08-19T02:23:58;20.20;99.90
14182;DHT22;7171;50.936;6.764;2022-08-19T02:26:25;20.10;99.90
14182;DHT22;7171;50.936;6.764;2022-08-19T02:28:53;20.20;99.90
14182;DHT22;7171;50.936;6.764;2022-08-19T02:31:23;20.20;99.90
14182;DHT22;7171;50.936;6.764;2022-08-19T02:33:51;20.10;99.90
14182;DHT22;7171;50.936;6.764;2022-08-19T02:36:18;20.00;99.90
14182;DHT22;7171;50.936;6.764;2022-08-19T02:38:45;20.00;99.90
14182;DHT22;7171;50.936;6.764;2022-08-19T02:41:16;19.90;99.90
14182;DHT22;7171;50.936;6.764;2022-08-19T02:43:43;20.30;99.90
14182;DHT22;7171;50.936;6.764;2022-08-19T02:48:43;19.80;99.90
14182;DHT22;7171;50.936;6.764;2022-08-19T02:51:16;19.80;99.90
14182;DHT22;7171;50.936;6.764;2022-08-19T02:53:42;19.80;99.90
14182;DHT22;7171;50.936;6.764;2022-08-19T02:56:10;19.70;99.90
14182;DHT22;7171;50.936;6.764;2022-08-19T02:58:37;19.70;99.90
14182;DHT22;7171;50.936;6.764;2022-08-19T03:01:04;19.70;99.90
14182;DHT22;7171;50.936;6.764;2022-08-19T03:03:31;19.70;99.90
14182;DHT22;7171;50.936;6.764;2022-08-19T03:06:09;19.70;99.90
14182;DHT22;7171;50.936;6.764;2022-08-19T03:08:38;19.80;99.90
14182;DHT22;7171;50.936;6.764;2022-08-19T03:11:06;19.80;99.90
14182;DHT22;7171;50.936;6.764;2022-08-19T03:13:33;19.80;99.90
14182;DHT22;7171;50.936;6.764;2022-08-19T03:15:59;19.80;99.90
14182;DHT22;7171;50.936;6.764;2022-08-19T03:18:26;19.80;99.90
14182;DHT22;7171;50.936;6.764;2022-08-19T03:20:53;19.80;99.90
14182;DHT22;7171;50.936;6.764;2022-08-19T03:23:20;19.80;99.90
14182;DHT22;7171;50.936;6.764;2022-08-19T03:25:52;19.80;99.90
14182;DHT22;7171;50.936;6.764;2022-08-19T03:28:20;19.80;99.90
14182;DHT22;7171;50.936;6.764;2022-08-19T03:30:58;19.70;99.90
14182;DHT22;7171;50.936;6.764;2022-08-19T03:33:26;19.80;99.90
14182;DHT22;7171;50.936;6.764;2022-08-19T03:36:01;19.70;99.90
14182;DHT22;7171;50.936;6.764;2022-08-19T03:38:28;19.70;99.90
14182;DHT22;7171;50.936;6.764;2022-08-19T03:40:56;19.60;99.90
14182;DHT22;7171;50.936;6.764;2022-08-19T03:43:23;19.70;99.90
14182;DHT22;7171;50.936;6.764;2022-08-19T03:45:59;19.70;99.90
14182;DHT22;7171;50.936;6.764;2022-08-19T03:48:28;19.70;99.90
14182;DHT22;7171;50.936;6.764;2022-08-19T03:50:55;19.60;99.90
14182;DHT22;7171;50.936;6.764;2022-08-19T03:53:24;19.60;99.90
14182;DHT22;7171;50.936;6.764;2022-08-19T03:55:51;19.60;99.90
14182;DHT22;7171;50.936;6.764;2022-08-19T03:58:19;19.60;99.90
14182;DHT22;7171;50.936;6.764;2022-08-19T04:00:46;19.60;99.90
14182;DHT22;7171;50.936;6.764;2022-08-19T04:03:13;19.50;99.90
14182;DHT22;7171;50.936;6.764;2022-08-19T04:05:40;19.60;99.90
14182;DHT22;7171;50.936;6.764;2022-08-19T04:08:06;19.60;99.90
14182;DHT22;7171;50.936;6.764;2022-08-19T04:10:35;19.60;99.90
14182;DHT22;7171;50.936;6.764;2022-08-19T04:13:02;19.60;99.90
14182;DHT22;7171;50.936;6.764;2022-08-19T04:15:32;19.70;99.90
14182;DHT22;7171;50.936;6.764;2022-08-19T04:18:05;19.70;99.90
14182;DHT22;7171;50.936;6.764;2022-08-19T04:20:33;19.70;99.90
14182;DHT22;7171;50.936;6.764;2022-08-19T04:22:59;19.80;99.90
14182;DHT22;7171;50.936;6.764;2022-08-19T04:25:26;19.80;99.90
14182;DHT22;7171;50.936;6.764;2022-08-19T04:27:53;19.80;99.90
14182;DHT22;7171;50.936;6.764;2022-08-19T04:30:20;19.80;99.90
14182;DHT22;7171;50.936;6.764;2022-08-19T04:32:49;19.80;99.90
14182;DHT22;7171;50.936;6.764;2022-08-19T04:35:16;19.80;99.90
14182;DHT22;7171;50.936;6.764;2022-08-19T04:37:42;19.80;99.90
14182;DHT22;7171;50.936;6.764;2022-08-19T04:40:10;19.80;99.90
14182;DHT22;7171;50.936;6.764;2022-08-19T04:42:54;19.80;99.90
14182;DHT22;7171;50.936;6.764;2022-08-19T04:45:22;19.70;99.90
14182;DHT22;7171;50.936;6.764;2022-08-19T04:47:54;19.70;99.90
14182;DHT22;7171;50.936;6.764;2022-08-19T04:50:22;19.70;99.90
14182;DHT22;7171;50.936;6.764;2022-08-19T04:52:50;19.60;99.90
14182;DHT22;7171;50.936;6.764;2022-08-19T04:55:17;19.50;99.90
14182;DHT22;7171;50.936;6.764;2022-08-19T04:57:44;19.50;99.90
14182;DHT22;7171;50.936;6.764;2022-08-19T05:00:12;19.40;99.90
14182;DHT22;7171;50.936;6.764;2022-08-19T05:05:07;19.30;99.90
14182;DHT22;7171;50.936;6.764;2022-08-19T05:07:34;19.30;99.90
14182;DHT22;7171;50.936;6.764;2022-08-19T05:10:02;19.30;99.90
14182;DHT22;7171;50.936;6.764;2022-08-19T05:12:30;19.30;99.90
14182;DHT22;7171;50.936;6.764;2022-08-19T05:14:57;19.30;99.90
14182;DHT22;7171;50.936;6.764;2022-08-19T05:17:25;19.20;99.90
14182;DHT22;7171;50.936;6.764;2022-08-19T05:19:52;19.20;99.90
14182;DHT22;7171;50.936;6.764;2022-08-19T05:22:37;19.20;99.90
14182;DHT22;7171;50.936;6.764;2022-08-19T05:25:07;19.20;99.90
14182;DHT22;7171;50.936;6.764;2022-08-19T05:27:34;19.20;99.90
14182;DHT22;7171;50.936;6.764;2022-08-19T05:30:02;19.30;99.90
14182;DHT22;7171;50.936;6.764;2022-08-19T05:32:29;19.30;99.90
14182;DHT22;7171;50.936;6.764;2022-08-19T05:34:56;19.30;99.90
14182;DHT22;7171;50.936;6.764;2022-08-19T05:37:23;19.30;99.90
14182;DHT22;7171;50.936;6.764;2022-08-19T05:39:53;19.30;99.90
14182;DHT22;7171;50.936;6.764;2022-08-19T05:42:21;19.30;99.90
14182;DHT22;7171;50.936;6.764;2022-08-19T05:44:49;19.30;99.90
14182;DHT22;7171;50.936;6.764;2022-08-19T05:47:16;19.40;99.90
14182;DHT22;7171;50.936;6.764;2022-08-19T05:49:45;19.40;99.90
14182;DHT22;7171;50.936;6.764;2022-08-19T05:52:13;19.40;99.90
14182;DHT22;7171;50.936;6.764;2022-08-19T05:54:41;19.40;99.90
14182;DHT22;7171;50.936;6.764;2022-08-19T05:57:09;19.40;99.90
14182;DHT22;7171;50.936;6.764;2022-08-19T05:59:36;19.50;99.90
14182;DHT22;7171;50.936;6.764;2022-08-19T06:02:04;19.50;99.90
14182;DHT22;7171;50.936;6.764;2022-08-19T06:04:31;19.50;99.90
14182;DHT22;7171;50.936;6.764;2022-08-19T06:06:58;19.50;99.90
14182;DHT22;7171;50.936;6.764;2022-08-19T06:09:27;19.60;99.90
14182;DHT22;7171;50.936;6.764;2022-08-19T06:11:55;19.60;99.90
14182;DHT22;7171;50.936;6.764;2022-08-19T06:14:28;19.60;99.90
14182;DHT22;7171;50.936;6.764;2022-08-19T06:16:55;19.60;99.90
14182;DHT22;7171;50.936;6.764;2022-08-19T06:19:22;19.60;99.90
14182;DHT22;7171;50.936;6.764;2022-08-19T06:21:51;19.70;99.90
14182;DHT22;7171;50.936;6.764;2022-08-19T06:24:20;19.70;99.90
14182;DHT22;7171;50.936;6.764;2022-08-19T06:26:50;19.70;99.90
14182;DHT22;7171;50.936;6.764;2022-08-19T06:29:19;19.80;99.90
14182;DHT22;7171;50.936;6.764;2022-08-19T06:31:49;19.80;99.90
14182;DHT22;7171;50.936;6.764;2022-08-19T06:34:16;19.90;99.90
14182;DHT22;7171;50.936;6.764;2022-08-19T06:36:46;19.90;99.90
14182;DHT22;7171;50.936;6.764;2022-08-19T06:39:15;19.90;99.90
14182;DHT22;7171;50.936;6.764;2022-08-19T06:41:45;20.00;99.90
14182;DHT22;7171;50.936;6.764;2022-08-19T06:44:12;20.00;99.90
14182;DHT22;7171;50.936;6.764;2022-08-19T06:46:39;20.00;99.90
14182;DHT22;7171;50.936;6.764;2022-08-19T06:49:08;20.00;99.90
14182;DHT22;7171;50.936;6.764;2022-08-19T06:51:40;20.00;99.90
14182;DHT22;7171;50.936;6.764;2022-08-19T06:54:07;20.00;99.90
14182;DHT22;7171;50.936;6.764;2022-08-19T06:56:34;20.00;99.90
14182;DHT22;7171;50.936;6.764;2022-08-19T06:59:03;20.00;99.90
14182;DHT22;7171;50.936;6.764;2022-08-19T07:01:34;20.00;99.90
14182;DHT22;7171;50.936;6.764;2022-08-19T07:04:04;20.00;99.90
14182;DHT22;7171;50.936;6.764;2022-08-19T07:06:32;20.00;99.90
14182;DHT22;7171;50.936;6.764;2022-08-19T07:08:59;20.00;99.90
14182;DHT22;7171;50.936;6.764;2022-08-19T07:11:26;19.90;99.90
14182;DHT22;7171;50.936;6.764;2022-08-19T07:13:53;19.90;99.90
14182;DHT22;7171;50.936;6.764;2022-08-19T07:16:21;19.90;99.90
14182;DHT22;7171;50.936;6.764;2022-08-19T07:18:48;19.80;99.90
14182;DHT22;7171;50.936;6.764;2022-08-19T07:21:18;19.90;99.90
14182;DHT22;7171;50.936;6.764;2022-08-19T07:23:46;19.80;99.90
14182;DHT22;7171;50.936;6.764;2022-08-19T07:26:15;19.80;99.90
14182;DHT22;7171;50.936;6.764;2022-08-19T07:28:42;19.80;99.90
14182;DHT22;7171;50.936;6.764;2022-08-19T07:31:11;19.90;99.90
14182;DHT22;7171;50.936;6.764;2022-08-19T07:33:38;19.90;99.90
14182;DHT22;7171;50.936;6.764;2022-08-19T07:36:08;19.90;99.90
14182;DHT22;7171;50.936;6.764;2022-08-19T07:38:35;19.90;99.90
14182;DHT22;7171;50.936;6.764;2022-08-19T07:41:04;19.90;99.90
14182;DHT22;7171;50.936;6.764;2022-08-19T07:43:30;19.90;99.90
14182;DHT22;7171;50.936;6.764;2022-08-19T07:45:57;20.00;99.90
14182;DHT22;7171;50.936;6.764;2022-08-19T07:48:25;20.00;99.90
14182;DHT22;7171;50.936;6.764;2022-08-19T07:50:53;20.00;99.90
14182;DHT22;7171;50.936;6.764;2022-08-19T07:53:20;20.10;99.90
14182;DHT22;7171;50.936;6.764;2022-08-19T07:55:47;20.10;99.90
14182;DHT22;7171;50.936;6.764;2022-08-19T07:58:18;20.20;99.90
14182;DHT22;7171;50.936;6.764;2022-08-19T08:00:48;20.30;99.90
14182;DHT22;7171;50.936;6.764;2022-08-19T08:03:17;20.40;99.90
14182;DHT22;7171;50.936;6.764;2022-08-19T08:05:44;20.50;99.90
14182;DHT22;7171;50.936;6.764;2022-08-19T08:08:29;20.60;99.90
14182;DHT22;7171;50.936;6.764;2022-08-19T08:11:16;20.70;99.90
14182;DHT22;7171;50.936;6.764;2022-08-19T08:13:45;20.80;99.90
14182;DHT22;7171;50.936;6.764;2022-08-19T08:16:11;20.90;99.90
14182;DHT22;7171;50.936;6.764;2022-08-19T08:18:38;21.00;99.90
14182;DHT22;7171;50.936;6.764;2022-08-19T08:21:08;21.10;99.90
14182;DHT22;7171;50.936;6.764;2022-08-19T08:23:35;21.10;99.90
14182;DHT22;7171;50.936;6.764;2022-08-19T08:28:30;21.30;99.90
14182;DHT22;7171;50.936;6.764;2022-08-19T08:30:58;21.40;99.90
14182;DHT22;7171;50.936;6.764;2022-08-19T08:33:27;21.40;99.90
14182;DHT22;7171;50.936;6.764;2022-08-19T08:35:54;21.50;99.90
14182;DHT22;7171;50.936;6.764;2022-08-19T08:38:21;21.60;99.90
14182;DHT22;7171;50.936;6.764;2022-08-19T08:40:51;21.60;99.90
14182;DHT22;7171;50.936;6.764;2022-08-19T08:43:24;21.80;99.90
14182;DHT22;7171;50.936;6.764;2022-08-19T08:45:59;21.70;99.90
14182;DHT22;7171;50.936;6.764;2022-08-19T08:48:33;21.80;99.90
14182;DHT22;7171;50.936;6.764;2022-08-19T08:51:04;21.80;99.90
14182;DHT22;7171;50.936;6.764;2022-08-19T08:53:32;21.90;99.90
14182;DHT22;7171;50.936;6.764;2022-08-19T08:56:03;21.80;99.90
14182;DHT22;7171;50.936;6.764;2022-08-19T08:58:39;21.80;99.90
14182;DHT22;7171;50.936;6.764;2022-08-19T09:01:11;21.90;99.90
14182;DHT22;7171;50.936;6.764;2022-08-19T09:03:40;21.90;99.90
14182;DHT22;7171;50.936;6.764;2022-08-19T09:06:13;21.90;99.90
14182;DHT22;7171;50.936;6.764;2022-08-19T09:08:47;21.90;99.90
14182;DHT22;7171;50.936;6.764;2022-08-19T09:11:25;22.00;99.90
14182;DHT22;7171;50.936;6.764;2022-08-19T09:14:03;22.00;99.90
14182;DHT22;7171;50.936;6.764;2022-08-19T09:21:32;22.20;99.90
14182;DHT22;7171;50.936;6.764;2022-08-19T09:26:27;22.40;99.90
14182;DHT22;7171;50.936;6.764;2022-08-19T09:28:54;22.50;99.90
14182;DHT22;7171;50.936;6.764;2022-08-19T09:33:53;22.70;99.90
14182;DHT22;7171;50.936;6.764;2022-08-19T09:38:50;22.90;99.90
14182;DHT22;7171;50.936;6.764;2022-08-19T09:41:19;23.00;99.90
14182;DHT22;7171;50.936;6.764;2022-08-19T09:43:48;23.10;99.90
14182;DHT22;7171;50.936;6.764;2022-08-19T09:46:18;23.20;99.90
14182;DHT22;7171;50.936;6.764;2022-08-19T09:48:46;23.30;99.90
14182;DHT22;7171;50.936;6.764;2022-08-19T09:51:17;23.40;99.90
14182;DHT22;7171;50.936;6.764;2022-08-19T09:53:46;23.50;99.90
14182;DHT22;7171;50.936;6.764;2022-08-19T09:56:15;23.70;99.90
14182;DHT22;7171;50.936;6.764;2022-08-19T09:58:42;23.80;99.90
14182;DHT22;7171;50.936;6.764;2022-08-19T10:01:14;23.90;99.90
14182;DHT22;7171;50.936;6.764;2022-08-19T10:03:41;24.00;99.90
14182;DHT22;7171;50.936;6.764;2022-08-19T10:06:08;24.00;99.90
14182;DHT22;7171;50.936;6.764;2022-08-19T10:08:37;22.60;99.90
14182;DHT22;7171;50.936;6.764;2022-08-19T10:11:05;24.20;99.90
14182;DHT22;7171;50.936;6.764;2022-08-19T10:13:32;24.30;99.90
14182;DHT22;7171;50.936;6.764;2022-08-19T10:16:04;25.20;99.90
14182;DHT22;7171;50.936;6.764;2022-08-19T10:18:31;24.40;99.90
14182;DHT22;7171;50.936;6.764;2022-08-19T10:23:30;24.60;99.90
14182;DHT22;7171;50.936;6.764;2022-08-19T10:26:01;24.70;99.90
14182;DHT22;7171;50.936;6.764;2022-08-19T10:28:29;24.80;99.90
14182;DHT22;7171;50.936;6.764;2022-08-19T10:30:57;24.80;99.90
14182;DHT22;7171;50.936;6.764;2022-08-19T10:33:24;24.90;99.90
14182;DHT22;7171;50.936;6.764;2022-08-19T10:35:58;24.90;99.90
14182;DHT22;7171;50.936;6.764;2022-08-19T10:38:25;25.00;99.90
14182;DHT22;7171;50.936;6.764;2022-08-19T10:40:54;25.00;99.90
14182;DHT22;7171;50.936;6.764;2022-08-19T10:43:22;25.10;99.90
14182;DHT22;7171;50.936;6.764;2022-08-19T10:45:52;25.10;99.90
14182;DHT22;7171;50.936;6.764;2022-08-19T10:48:21;25.20;99.90
14182;DHT22;7171;50.936;6.764;2022-08-19T10:50:48;25.20;99.90
14182;DHT22;7171;50.936;6.764;2022-08-19T10:53:32;25.30;99.90
14182;DHT22;7171;50.936;6.764;2022-08-19T10:55:59;25.40;99.90
14182;DHT22;7171;50.936;6.764;2022-08-19T10:58:44;25.40;99.90
14182;DHT22;7171;50.936;6.764;2022-08-19T11:01:11;25.40;99.90
14182;DHT22;7171;50.936;6.764;2022-08-19T11:03:38;25.30;99.90
14182;DHT22;7171;50.936;6.764;2022-08-19T11:06:06;25.30;99.90
14182;DHT22;7171;50.936;6.764;2022-08-19T11:08:33;25.30;99.90
14182;DHT22;7171;50.936;6.764;2022-08-19T11:11:03;25.30;99.90
14182;DHT22;7171;50.936;6.764;2022-08-19T11:13:32;25.30;99.90
14182;DHT22;7171;50.936;6.764;2022-08-19T11:16:06;25.30;99.90
14182;DHT22;7171;50.936;6.764;2022-08-19T11:18:34;25.30;99.90
14182;DHT22;7171;50.936;6.764;2022-08-19T11:21:14;25.20;99.90
14182;DHT22;7171;50.936;6.764;2022-08-19T11:23:43;25.20;99.90
14182;DHT22;7171;50.936;6.764;2022-08-19T11:26:10;25.30;99.90
14182;DHT22;7171;50.936;6.764;2022-08-19T11:28:37;25.40;99.90
14182;DHT22;7171;50.936;6.764;2022-08-19T11:31:09;25.40;99.90
14182;DHT22;7171;50.936;6.764;2022-08-19T11:36:04;25.60;99.90
14182;DHT22;7171;50.936;6.764;2022-08-19T11:38:31;25.60;99.90
14182;DHT22;7171;50.936;6.764;2022-08-19T11:40:59;25.70;99.90
14182;DHT22;7171;50.936;6.764;2022-08-19T11:43:27;25.80;99.90
14182;DHT22;7171;50.936;6.764;2022-08-19T11:45:55;25.80;99.90
14182;DHT22;7171;50.936;6.764;2022-08-19T11:48:24;25.80;99.90
14182;DHT22;7171;50.936;6.764;2022-08-19T11:50:52;25.80;99.90
14182;DHT22;7171;50.936;6.764;2022-08-19T11:53:21;25.80;99.90
14182;DHT22;7171;50.936;6.764;2022-08-19T11:55:47;25.80;99.90
14182;DHT22;7171;50.936;6.764;2022-08-19T11:58:16;25.80;99.90
14182;DHT22;7171;50.936;6.764;2022-08-19T12:00:44;25.80;99.90
14182;DHT22;7171;50.936;6.764;2022-08-19T12:03:12;25.80;99.90
14182;DHT22;7171;50.936;6.764;2022-08-19T12:05:40;25.80;99.90
14182;DHT22;7171;50.936;6.764;2022-08-19T12:08:08;25.80;99.90
14182;DHT22;7171;50.936;6.764;2022-08-19T12:10:35;25.90;99.90
14182;DHT22;7171;50.936;6.764;2022-08-19T12:13:02;25.90;99.90
14182;DHT22;7171;50.936;6.764;2022-08-19T12:15:29;26.00;99.90
14182;DHT22;7171;50.936;6.764;2022-08-19T12:17:57;26.10;99.90
14182;DHT22;7171;50.936;6.764;2022-08-19T12:22:53;26.20;99.90
14182;DHT22;7171;50.936;6.764;2022-08-19T12:25:20;26.30;99.90
14182;DHT22;7171;50.936;6.764;2022-08-19T12:30:15;26.50;99.90
14182;DHT22;7171;50.936;6.764;2022-08-19T12:32:41;26.60;99.90
14182;DHT22;7171;50.936;6.764;2022-08-19T12:37:37;26.70;99.90
14182;DHT22;7171;50.936;6.764;2022-08-19T12:40:06;26.80;99.90
14182;DHT22;7171;50.936;6.764;2022-08-19T12:42:33;26.90;99.90
14182;DHT22;7171;50.936;6.764;2022-08-19T12:45:00;27.00;99.90
14182;DHT22;7171;50.936;6.764;2022-08-19T12:47:27;27.10;99.90
14182;DHT22;7171;50.936;6.764;2022-08-19T12:49:54;27.10;99.90
14182;DHT22;7171;50.936;6.764;2022-08-19T12:52:23;27.20;99.90
14182;DHT22;7171;50.936;6.764;2022-08-19T12:54:50;27.20;99.90
14182;DHT22;7171;50.936;6.764;2022-08-19T12:57:18;27.20;99.90
14182;DHT22;7171;50.936;6.764;2022-08-19T12:59:45;27.20;99.90
14182;DHT22;7171;50.936;6.764;2022-08-19T13:02:12;27.20;99.90
14182;DHT22;7171;50.936;6.764;2022-08-19T13:04:38;27.30;99.90
14182;DHT22;7171;50.936;6.764;2022-08-19T13:07:06;27.20;99.50
14182;DHT22;7171;50.936;6.764;2022-08-19T13:09:34;27.20;99.90
14182;DHT22;7171;50.936;6.764;2022-08-19T13:12:02;27.20;99.90
14182;DHT22;7171;50.936;6.764;2022-08-19T13:14:34;27.30;99.90
14182;DHT22;7171;50.936;6.764;2022-08-19T13:17:01;27.30;99.90
14182;DHT22;7171;50.936;6.764;2022-08-19T13:19:27;27.30;99.90
14182;DHT22;7171;50.936;6.764;2022-08-19T13:21:55;27.30;99.00
14182;DHT22;7171;50.936;6.764;2022-08-19T13:24:23;27.30;99.80
14182;DHT22;7171;50.936;6.764;2022-08-19T13:26:50;27.40;99.60
14182;DHT22;7171;50.936;6.764;2022-08-19T13:29:16;27.50;99.20
14182;DHT22;7171;50.936;6.764;2022-08-19T13:32:11;27.50;99.20
14182;DHT22;7171;50.936;6.764;2022-08-19T13:34:56;27.50;99.30
14182;DHT22;7171;50.936;6.764;2022-08-19T13:37:22;27.60;99.30
14182;DHT22;7171;50.936;6.764;2022-08-19T13:40:04;27.70;98.90
14182;DHT22;7171;50.936;6.764;2022-08-19T13:42:31;27.70;99.00
14182;DHT22;7171;50.936;6.764;2022-08-19T13:44:58;27.70;98.70
14182;DHT22;7171;50.936;6.764;2022-08-19T13:47:26;27.80;98.70
14182;DHT22;7171;50.936;6.764;2022-08-19T13:49:53;27.80;97.20
14182;DHT22;7171;50.936;6.764;2022-08-19T13:52:20;27.80;97.10
14182;DHT22;7171;50.936;6.764;2022-08-19T13:54:47;27.80;98.30
14182;DHT22;7171;50.936;6.764;2022-08-19T13:57:13;27.80;98.60
14182;DHT22;7171;50.936;6.764;2022-08-19T13:59:40;27.80;97.90
14182;DHT22;7171;50.936;6.764;2022-08-19T14:02:07;27.80;97.70
14182;DHT22;7171;50.936;6.764;2022-08-19T14:04:35;27.90;98.40
14182;DHT22;7171;50.936;6.764;2022-08-19T14:07:03;27.90;98.40
14182;DHT22;7171;50.936;6.764;2022-08-19T14:09:29;28.00;98.20
14182;DHT22;7171;50.936;6.764;2022-08-19T14:11:56;28.00;97.70
14182;DHT22;7171;50.936;6.764;2022-08-19T14:14:23;28.00;97.60
14182;DHT22;7171;50.936;6.764;2022-08-19T14:16:50;28.00;97.50
14182;DHT22;7171;50.936;6.764;2022-08-19T14:19:17;28.10;97.80
14182;DHT22;7171;50.936;6.764;2022-08-19T14:21:46;28.10;98.00
14182;DHT22;7171;50.936;6.764;2022-08-19T14:24:13;28.10;97.60
14182;DHT22;7171;50.936;6.764;2022-08-19T14:26:40;28.10;96.70
14182;DHT22;7171;50.936;6.764;2022-08-19T14:29:06;28.10;96.90
14182;DHT22;7171;50.936;6.764;2022-08-19T14:31:33;28.20;97.10
14182;DHT22;7171;50.936;6.764;2022-08-19T14:34:00;28.20;96.80
14182;DHT22;7171;50.936;6.764;2022-08-19T14:36:27;28.20;96.40
14182;DHT22;7171;50.936;6.764;2022-08-19T14:38:55;28.20;96.60
14182;DHT22;7171;50.936;6.764;2022-08-19T14:41:23;28.20;96.00
14182;DHT22;7171;50.936;6.764;2022-08-19T14:43:52;28.20;95.90
14182;DHT22;7171;50.936;6.764;2022-08-19T14:46:21;28.30;95.80
14182;DHT22;7171;50.936;6.764;2022-08-19T14:48:49;28.30;94.90
14182;DHT22;7171;50.936;6.764;2022-08-19T14:51:16;28.30;95.30
14182;DHT22;7171;50.936;6.764;2022-08-19T14:53:43;28.30;94.80
14182;DHT22;7171;50.936;6.764;2022-08-19T14:56:13;28.30;95.40
14182;DHT22;7171;50.936;6.764;2022-08-19T14:58:40;28.40;95.20
14182;DHT22;7171;50.936;6.764;2022-08-19T15:01:08;28.40;95.80
14182;DHT22;7171;50.936;6.764;2022-08-19T15:03:35;28.40;95.20
14182;DHT22;7171;50.936;6.764;2022-08-19T15:06:03;28.40;95.80
14182;DHT22;7171;50.936;6.764;2022-08-19T15:08:31;28.40;96.10
14182;DHT22;7171;50.936;6.764;2022-08-19T15:10:59;28.50;95.50
14182;DHT22;7171;50.936;6.764;2022-08-19T15:13:28;28.50;95.40
14182;DHT22;7171;50.936;6.764;2022-08-19T15:15:56;28.70;95.40
14182;DHT22;7171;50.936;6.764;2022-08-19T15:18:23;28.70;95.10
14182;DHT22;7171;50.936;6.764;2022-08-19T15:20:50;28.70;95.10
14182;DHT22;7171;50.936;6.764;2022-08-19T15:23:18;28.60;95.00
14182;DHT22;7171;50.936;6.764;2022-08-19T15:25:45;28.60;95.00
14182;DHT22;7171;50.936;6.764;2022-08-19T15:28:12;28.50;94.90
14182;DHT22;7171;50.936;6.764;2022-08-19T15:30:42;28.50;94.20
14182;DHT22;7171;50.936;6.764;2022-08-19T15:33:10;28.40;94.60
14182;DHT22;7171;50.936;6.764;2022-08-19T15:35:39;28.40;94.80
14182;DHT22;7171;50.936;6.764;2022-08-19T15:38:07;28.30;94.60
14182;DHT22;7171;50.936;6.764;2022-08-19T15:40:34;28.40;94.90
14182;DHT22;7171;50.936;6.764;2022-08-19T15:43:01;28.30;95.00
14182;DHT22;7171;50.936;6.764;2022-08-19T15:45:28;28.10;95.00
14182;DHT22;7171;50.936;6.764;2022-08-19T15:47:58;28.00;95.00
14182;DHT22;7171;50.936;6.764;2022-08-19T15:50:25;27.90;94.90
14182;DHT22;7171;50.936;6.764;2022-08-19T15:52:54;27.80;95.00
14182;DHT22;7171;50.936;6.764;2022-08-19T15:55:25;27.70;95.00
14182;DHT22;7171;50.936;6.764;2022-08-19T15:57:52;27.60;94.90
14182;DHT22;7171;50.936;6.764;2022-08-19T16:00:37;27.60;95.10
14182;DHT22;7171;50.936;6.764;2022-08-19T16:03:22;27.70;95.30
14182;DHT22;7171;50.936;6.764;2022-08-19T16:06:07;27.80;95.10
14182;DHT22;7171;50.936;6.764;2022-08-19T16:08:52;27.90;94.80
14182;DHT22;7171;50.936;6.764;2022-08-19T16:11:22;28.00;95.20
14182;DHT22;7171;50.936;6.764;2022-08-19T16:13:50;28.10;95.10
14182;DHT22;7171;50.936;6.764;2022-08-19T16:16:18;28.20;95.20
14182;DHT22;7171;50.936;6.764;2022-08-19T16:18:47;28.20;95.30
14182;DHT22;7171;50.936;6.764;2022-08-19T16:21:16;28.20;95.00
14182;DHT22;7171;50.936;6.764;2022-08-19T16:23:43;28.00;94.90
14182;DHT22;7171;50.936;6.764;2022-08-19T16:26:11;27.90;94.90
14182;DHT22;7171;50.936;6.764;2022-08-19T16:28:39;27.80;94.80